sensor_id;sensor_type;location;lat;lon;timestamp;pressure;altitude;pressure_sealevel;temperature;humidity
49030;BME280;43337;52.070;4.508;2022-12-07T00:00:53;102071.47;;;3.66;100.00
49030;BME280;43337;52.070;4.508;2022-12-07T00:03:18;102060.97;;;3.56;100.00
49030;BME280;43337;52.070;4.508;2022-12-07T00:05:43;102068.81;;;3.60;100.00
49030;BME280;43337;52.070;4.508;2022-12-07T00:08:09;102060.94;;;3.51;100.00
49030;BME280;43337;52.070;4.508;2022-12-07T00:10:34;102064.41;;;3.47;100.00
49030;BME280;43337;52.070;4.508;2022-12-07T00:13:00;102057.44;;;3.45;100.00
49030;BME280;43337;52.070;4.508;2022-12-07T00:15:25;102044.41;;;3.38;100.00
49030;BME280;43337;52.070;4.508;2022-12-07T00:17:51;102025.19;;;3.20;100.00
49030;BME280;43337;52.070;4.508;2022-12-07T00:20:17;102032.09;;;3.17;100.00
49030;BME280;43337;52.070;4.508;2022-12-07T00:22:42;102069.53;;;3.38;100.00
49030;BME280;43337;52.070;4.508;2022-12-07T00:25:08;102056.50;;;3.36;100.00
49030;BME280;43337;52.070;4.508;2022-12-07T00:27:34;102066.91;;;3.33;100.00
49030;BME280;43337;52.070;4.508;2022-12-07T00:29:59;102020.78;;;3.14;100.00
49030;BME280;43337;52.070;4.508;2022-12-07T00:32:24;102007.69;;;3.02;100.00
49030;BME280;43337;52.070;4.508;2022-12-07T00:34:50;102041.59;;;3.14;100.00
49030;BME280;43337;52.070;4.508;2022-12-07T00:37:15;102028.53;;;3.05;100.00
49030;BME280;43337;52.070;4.508;2022-12-07T00:39:41;102044.16;;;3.08;100.00
49030;BME280;43337;52.070;4.508;2022-12-07T00:42:06;102035.44;;;3.01;100.00
49030;BME280;43337;52.070;4.508;2022-12-07T00:44:31;102043.25;;;3.03;100.00
49030;BME280;43337;52.070;4.508;2022-12-07T00:46:57;102038.84;;;2.96;100.00
49030;BME280;43337;52.070;4.508;2022-12-07T00:49:22;102064.91;;;3.02;100.00
49030;BME280;43337;52.070;4.508;2022-12-07T00:51:49;102064.09;;;3.07;100.00
49030;BME280;43337;52.070;4.508;2022-12-07T00:54:14;102065.88;;;3.13;100.00
49030;BME280;43337;52.070;4.508;2022-12-07T00:56:40;102038.09;;;3.09;100.00
49030;BME280;43337;52.070;4.508;2022-12-07T00:59:05;102037.28;;;3.17;100.00
49030;BME280;43337;52.070;4.508;2022-12-07T01:01:34;102037.38;;;3.28;100.00
49030;BME280;43337;52.070;4.508;2022-12-07T01:03:59;102039.97;;;3.30;100.00
49030;BME280;43337;52.070;4.508;2022-12-07T01:06:29;102037.41;;;3.31;100.00
49030;BME280;43337;52.070;4.508;2022-12-07T01:08:54;102041.78;;;3.40;100.00
49030;BME280;43337;52.070;4.508;2022-12-07T01:11:23;102047.00;;;3.40;100.00
49030;BME280;43337;52.070;4.508;2022-12-07T01:13:53;102046.97;;;3.37;100.00
49030;BME280;43337;52.070;4.508;2022-12-07T01:16:20;102048.69;;;3.32;100.00
49030;BME280;43337;52.070;4.508;2022-12-07T01:18:48;102035.59;;;3.23;100.00
49030;BME280;43337;52.070;4.508;2022-12-07T01:21:19;102035.53;;;3.12;100.00
49030;BME280;43337;52.070;4.508;2022-12-07T01:23:46;102035.47;;;3.07;100.00
49030;BME280;43337;52.070;4.508;2022-12-07T01:26:14;102039.81;;;3.05;100.00
49030;BME280;43337;52.070;4.508;2022-12-07T01:28:40;102048.44;;;3.03;100.00
49030;BME280;43337;52.070;4.508;2022-12-07T01:31:13;102044.91;;;2.94;100.00
49030;BME280;43337;52.070;4.508;2022-12-07T01:33:42;101997.91;;;2.70;100.00
49030;BME280;43337;52.070;4.508;2022-12-07T01:36:13;102051.00;;;2.97;100.00
49030;BME280;43337;52.070;4.508;2022-12-07T01:38:39;102042.28;;;2.91;100.00
49030;BME280;43337;52.070;4.508;2022-12-07T01:41:05;102060.56;;;2.96;100.00
49030;BME280;43337;52.070;4.508;2022-12-07T01:43:32;102056.19;;;2.95;100.00
49030;BME280;43337;52.070;4.508;2022-12-07T01:45:58;102051.84;;;2.96;100.00
49030;BME280;43337;52.070;4.508;2022-12-07T01:48:31;102064.88;;;2.97;100.00
49030;BME280;43337;52.070;4.508;2022-12-07T01:51:01;102046.72;;;3.00;100.00
49030;BME280;43337;52.070;4.508;2022-12-07T01:53:30;102025.84;;;2.96;100.00
49030;BME280;43337;52.070;4.508;2022-12-07T01:55:57;102040.66;;;3.07;100.00
49030;BME280;43337;52.070;4.508;2022-12-07T01:58:24;102033.69;;;3.03;100.00
49030;BME280;43337;52.070;4.508;2022-12-07T02:00:50;102034.59;;;3.07;100.00
49030;BME280;43337;52.070;4.508;2022-12-07T02:03:30;102039.88;;;3.11;100.00
49030;BME280;43337;52.070;4.508;2022-12-07T02:05:58;102020.69;;;3.03;100.00
49030;BME280;43337;52.070;4.508;2022-12-07T02:08:25;102024.16;;;3.01;100.00
49030;BME280;43337;52.070;4.508;2022-12-07T02:10:50;102002.38;;;2.86;100.00
49030;BME280;43337;52.070;4.508;2022-12-07T02:13:20;102031.94;;;2.98;100.00
49030;BME280;43337;52.070;4.508;2022-12-07T02:21:28;102044.00;;;2.89;100.00
49030;BME280;43337;52.070;4.508;2022-12-07T02:27:20;102026.75;;;2.99;100.00
49030;BME280;43337;52.070;4.508;2022-12-07T02:30:08;102033.69;;;3.02;100.00
49030;BME280;43337;52.070;4.508;2022-12-07T02:35:20;102034.66;;;3.11;100.00
49030;BME280;43337;52.070;4.508;2022-12-07T02:40:43;102049.44;;;3.18;100.00
49030;BME280;43337;52.070;4.508;2022-12-07T02:43:28;102017.34;;;3.18;100.00
49030;BME280;43337;52.070;4.508;2022-12-07T02:45:58;102027.81;;;3.24;100.00
49030;BME280;43337;52.070;4.508;2022-12-07T02:48:27;102023.47;;;3.26;100.00
49030;BME280;43337;52.070;4.508;2022-12-07T02:50:54;102017.41;;;3.26;100.00
49030;BME280;43337;52.070;4.508;2022-12-07T02:53:41;102027.81;;;3.24;100.00
49030;BME280;43337;52.070;4.508;2022-12-07T03:01:46;102025.19;;;3.20;100.00
49030;BME280;43337;52.070;4.508;2022-12-07T03:04:38;102023.47;;;3.25;100.00
49030;BME280;43337;52.070;4.508;2022-12-07T03:07:18;102026.06;;;3.26;100.00
49030;BME280;43337;52.070;4.508;2022-12-07T03:10:20;102029.56;;;3.27;100.00
49030;BME280;43337;52.070;4.508;2022-12-07T03:13:17;102022.56;;;3.20;100.00
49030;BME280;43337;52.070;4.508;2022-12-07T03:15:56;102031.28;;;3.23;100.00
49030;BME280;43337;52.070;4.508;2022-12-07T03:18:25;102032.13;;;3.21;100.00
49030;BME280;43337;52.070;4.508;2022-12-07T03:20:55;102032.09;;;3.17;100.00
49030;BME280;43337;52.070;4.508;2022-12-07T03:23:23;102006.84;;;3.04;100.00
49030;BME280;43337;52.070;4.508;2022-12-07T03:25:53;102024.25;;;3.13;100.00
49030;BME280;43337;52.070;4.508;2022-12-07T03:28:23;102014.69;;;3.10;100.00
49030;BME280;43337;52.070;4.508;2022-12-07T03:31:00;102003.34;;;3.02;100.00
49030;BME280;43337;52.070;4.508;2022-12-07T03:33:38;102028.56;;;3.08;100.00
49030;BME280;43337;52.070;4.508;2022-12-07T03:36:10;102011.19;;;3.07;100.00
49030;BME280;43337;52.070;4.508;2022-12-07T03:41:29;102010.25;;;2.99;100.00
49030;BME280;43337;52.070;4.508;2022-12-07T03:43:57;102001.56;;;2.95;100.00
49030;BME280;43337;52.070;4.508;2022-12-07T03:49:08;101998.91;;;2.87;100.00
49030;BME280;43337;52.070;4.508;2022-12-07T03:54:24;101998.88;;;2.81;100.00
49030;BME280;43337;52.070;4.508;2022-12-07T03:56:53;101979.63;;;2.62;100.00
49030;BME280;43337;52.070;4.508;2022-12-07T03:59:20;101974.41;;;2.59;100.00
49030;BME280;43337;52.070;4.508;2022-12-07T04:01:53;101985.66;;;2.58;100.00
49030;BME280;43337;52.070;4.508;2022-12-07T04:04:20;101977.78;;;2.46;100.00
49030;BME280;43337;52.070;4.508;2022-12-07T04:06:46;101976.88;;;2.44;100.00
49030;BME280;43337;52.070;4.508;2022-12-07T04:09:15;101928.03;;;2.11;100.00
49030;BME280;43337;52.070;4.508;2022-12-07T04:11:41;101918.47;;;2.07;100.00
49030;BME280;43337;52.070;4.508;2022-12-07T04:14:06;101968.13;;;2.36;100.00
49030;BME280;43337;52.070;4.508;2022-12-07T04:16:55;101923.66;;;2.05;100.00
49030;BME280;43337;52.070;4.508;2022-12-07T04:19:29;101920.25;;;2.08;100.00
49030;BME280;43337;52.070;4.508;2022-12-07T04:21:56;101929.06;;;2.24;100.00
49030;BME280;43337;52.070;4.508;2022-12-07T04:24:22;101960.47;;;2.53;100.00
49030;BME280;43337;52.070;4.508;2022-12-07T04:26:48;101910.03;;;2.28;100.00
49030;BME280;43337;52.070;4.508;2022-12-07T04:29:14;101992.81;;;2.82;100.00
49030;BME280;43337;52.070;4.508;2022-12-07T04:31:40;101974.53;;;2.76;100.00
49030;BME280;43337;52.070;4.508;2022-12-07T04:34:06;101954.53;;;2.66;100.00
49030;BME280;43337;52.070;4.508;2022-12-07T04:36:32;101965.84;;;2.69;100.00
49030;BME280;43337;52.070;4.508;2022-12-07T04:38:59;101932.72;;;2.47;100.00
49030;BME280;43337;52.070;4.508;2022-12-07T04:41:24;101915.28;;;2.35;100.00
49030;BME280;43337;52.070;4.508;2022-12-07T04:43:58;101927.50;;;2.44;100.00
49030;BME280;43337;52.070;4.508;2022-12-07T04:46:25;101913.56;;;2.37;100.00
49030;BME280;43337;52.070;4.508;2022-12-07T04:48:52;101915.28;;;2.37;100.00
49030;BME280;43337;52.070;4.508;2022-12-07T04:51:23;101971.09;;;2.79;100.00
49030;BME280;43337;52.070;4.508;2022-12-07T04:53:50;101910.09;;;2.35;100.00
49030;BME280;43337;52.070;4.508;2022-12-07T04:56:17;101894.47;;;2.32;100.00
49030;BME280;43337;52.070;4.508;2022-12-07T04:58:45;101938.84;;;2.54;100.00
49030;BME280;43337;52.070;4.508;2022-12-07T05:01:12;101939.72;;;2.56;100.00
49030;BME280;43337;52.070;4.508;2022-12-07T05:03:38;101945.88;;;2.65;100.00
49030;BME280;43337;52.070;4.508;2022-12-07T05:06:05;101905.75;;;2.37;100.00
49030;BME280;43337;52.070;4.508;2022-12-07T05:08:32;101900.53;;;2.33;100.00
49030;BME280;43337;52.070;4.508;2022-12-07T05:10:58;101894.41;;;2.26;100.00
49030;BME280;43337;52.070;4.508;2022-12-07T05:13:23;101929.25;;;2.47;100.00
49030;BME280;43337;52.070;4.508;2022-12-07T05:15:49;101938.72;;;2.41;100.00
49030;BME280;43337;52.070;4.508;2022-12-07T05:18:15;101923.06;;;2.31;100.00
49030;BME280;43337;52.070;4.508;2022-12-07T05:20:41;101953.41;;;2.36;100.00
49030;BME280;43337;52.070;4.508;2022-12-07T05:23:07;101943.84;;;2.31;100.00
49030;BME280;43337;52.070;4.508;2022-12-07T05:25:32;101970.78;;;2.39;100.00
49030;BME280;43337;52.070;4.508;2022-12-07T05:27:58;101948.97;;;2.25;100.00
49030;BME280;43337;52.070;4.508;2022-12-07T05:30:24;101949.75;;;2.19;100.00
49030;BME280;43337;52.070;4.508;2022-12-07T05:32:50;101962.78;;;2.20;100.00
49030;BME280;43337;52.070;4.508;2022-12-07T05:35:16;101949.66;;;2.07;100.00
49030;BME280;43337;52.070;4.508;2022-12-07T05:37:41;101967.94;;;2.17;100.00
49030;BME280;43337;52.070;4.508;2022-12-07T05:40:07;101969.63;;;2.12;100.00
49030;BME280;43337;52.070;4.508;2022-12-07T05:42:33;101946.97;;;1.96;100.00
49030;BME280;43337;52.070;4.508;2022-12-07T05:44:59;101966.09;;;2.04;100.00
49030;BME280;43337;52.070;4.508;2022-12-07T05:47:24;101972.06;;;1.99;100.00
49030;BME280;43337;52.070;4.508;2022-12-07T05:49:49;101946.78;;;1.84;100.00
49030;BME280;43337;52.070;4.508;2022-12-07T05:52:15;101979.81;;;1.95;100.00
49030;BME280;43337;52.070;4.508;2022-12-07T05:54:40;101953.81;;;1.89;100.00
49030;BME280;43337;52.070;4.508;2022-12-07T05:57:06;101931.09;;;1.70;100.00
49030;BME280;43337;52.070;4.508;2022-12-07T05:59:31;101979.78;;;1.91;100.00
49030;BME280;43337;52.070;4.508;2022-12-07T06:02:03;101982.44;;;1.97;100.00
49030;BME280;43337;52.070;4.508;2022-12-07T06:04:33;101972.94;;;1.99;100.00
49030;BME280;43337;52.070;4.508;2022-12-07T06:06:59;101956.41;;;1.89;100.00
49030;BME280;43337;52.070;4.508;2022-12-07T06:09:25;101978.13;;;1.96;100.00
49030;BME280;43337;52.070;4.508;2022-12-07T06:11:51;101976.34;;;1.95;100.00
49030;BME280;43337;52.070;4.508;2022-12-07T06:14:36;101957.31;;;1.93;100.00
49030;BME280;43337;52.070;4.508;2022-12-07T06:17:01;101965.06;;;1.88;100.00
49030;BME280;43337;52.070;4.508;2022-12-07T06:19:27;101971.97;;;1.91;100.00
49030;BME280;43337;52.070;4.508;2022-12-07T06:21:53;101960.69;;;1.86;100.00
49030;BME280;43337;52.070;4.508;2022-12-07T06:24:18;101949.31;;;1.76;100.00
49030;BME280;43337;52.070;4.508;2022-12-07T06:26:44;101966.69;;;1.83;100.00
49030;BME280;43337;52.070;4.508;2022-12-07T06:29:11;101964.06;;;1.80;100.00
49030;BME280;43337;52.070;4.508;2022-12-07T06:31:37;101974.44;;;1.79;100.00
49030;BME280;43337;52.070;4.508;2022-12-07T06:34:05;101958.78;;;1.69;100.00
49030;BME280;43337;52.070;4.508;2022-12-07T06:36:31;101959.63;;;1.71;100.00
49030;BME280;43337;52.070;4.508;2022-12-07T06:38:56;101982.25;;;1.80;100.00
49030;BME280;43337;52.070;4.508;2022-12-07T06:41:22;101980.53;;;1.82;100.00
49030;BME280;43337;52.070;4.508;2022-12-07T06:43:48;101989.25;;;1.86;100.00
49030;BME280;43337;52.070;4.508;2022-12-07T06:46:14;101961.47;;;1.77;100.00
49030;BME280;43337;52.070;4.508;2022-12-07T06:48:40;101986.88;;;2.04;100.00
49030;BME280;43337;52.070;4.508;2022-12-07T06:51:06;101973.94;;;2.10;100.00
49030;BME280;43337;52.070;4.508;2022-12-07T06:53:32;101960.97;;;2.13;100.00
49030;BME280;43337;52.070;4.508;2022-12-07T06:55:57;101968.03;;;2.25;100.00
49030;BME280;43337;52.070;4.508;2022-12-07T06:58:23;101972.44;;;2.34;100.00
49030;BME280;43337;52.070;4.508;2022-12-07T07:00:49;101979.41;;;2.36;100.00
49030;BME280;43337;52.070;4.508;2022-12-07T07:03:17;101948.91;;;2.17;100.00
49030;BME280;43337;52.070;4.508;2022-12-07T07:05:43;101950.63;;;2.18;100.00
49030;BME280;43337;52.070;4.508;2022-12-07T07:08:10;101944.53;;;2.13;100.00
49030;BME280;43337;52.070;4.508;2022-12-07T07:10:35;101976.69;;;2.24;100.00
49030;BME280;43337;52.070;4.508;2022-12-07T07:13:01;101981.88;;;2.24;100.00
49030;BME280;43337;52.070;4.508;2022-12-07T07:15:26;101970.53;;;2.17;100.00
49030;BME280;43337;52.070;4.508;2022-12-07T07:17:52;101974.88;;;2.15;100.00
49030;BME280;43337;52.070;4.508;2022-12-07T07:20:17;101964.34;;;2.05;100.00
49030;BME280;43337;52.070;4.508;2022-12-07T07:22:42;101956.47;;;1.97;100.00
49030;BME280;43337;52.070;4.508;2022-12-07T07:25:08;101966.88;;;1.99;100.00
49030;BME280;43337;52.070;4.508;2022-12-07T07:27:33;101973.81;;;2.00;100.00
49030;BME280;43337;52.070;4.508;2022-12-07T07:29:59;101970.25;;;1.88;100.00
49030;BME280;43337;52.070;4.508;2022-12-07T07:32:24;101979.81;;;1.92;100.00
49030;BME280;43337;52.070;4.508;2022-12-07T07:34:49;101959.72;;;1.79;100.00
49030;BME280;43337;52.070;4.508;2022-12-07T07:37:14;101981.47;;;1.87;100.00
49030;BME280;43337;52.070;4.508;2022-12-07T07:39:40;101985.78;;;1.85;100.00
49030;BME280;43337;52.070;4.508;2022-12-07T07:42:05;101991.03;;;1.91;100.00
49030;BME280;43337;52.070;4.508;2022-12-07T07:44:32;101985.00;;;1.95;100.00
49030;BME280;43337;52.070;4.508;2022-12-07T07:46:58;101991.16;;;2.01;100.00
49030;BME280;43337;52.070;4.508;2022-12-07T07:49:23;101981.63;;;2.03;100.00
49030;BME280;43337;52.070;4.508;2022-12-07T07:51:49;101965.97;;;1.95;100.00
49030;BME280;43337;52.070;4.508;2022-12-07T07:54:14;101973.88;;;2.04;100.00
49030;BME280;43337;52.070;4.508;2022-12-07T07:56:39;101979.16;;;2.12;100.00
49030;BME280;43337;52.070;4.508;2022-12-07T07:59:04;101970.47;;;2.08;100.00
49030;BME280;43337;52.070;4.508;2022-12-07T08:01:30;101972.28;;;2.17;100.00
49030;BME280;43337;52.070;4.508;2022-12-07T08:03:55;101969.59;;;2.11;100.00
49030;BME280;43337;52.070;4.508;2022-12-07T08:06:20;101979.19;;;2.16;100.00
49030;BME280;43337;52.070;4.508;2022-12-07T08:08:46;101984.41;;;2.18;100.00
49030;BME280;43337;52.070;4.508;2022-12-07T08:11:11;101974.78;;;2.11;100.00
49030;BME280;43337;52.070;4.508;2022-12-07T08:13:37;101986.13;;;2.16;100.00
49030;BME280;43337;52.070;4.508;2022-12-07T08:16:07;101985.19;;;2.11;100.00
49030;BME280;43337;52.070;4.508;2022-12-07T08:18:38;101968.66;;;2.01;100.00
49030;BME280;43337;52.070;4.508;2022-12-07T08:21:04;101990.38;;;2.08;100.00
49030;BME280;43337;52.070;4.508;2022-12-07T08:23:30;101981.63;;;2.03;100.00
49030;BME280;43337;52.070;4.508;2022-12-07T08:26:00;101977.38;;;2.08;100.00
49030;BME280;43337;52.070;4.508;2022-12-07T08:28:26;101979.97;;;2.08;100.00
49030;BME280;43337;52.070;4.508;2022-12-07T08:30:51;101996.59;;;2.24;100.00
49030;BME280;43337;52.070;4.508;2022-12-07T08:33:17;101990.53;;;2.25;100.00
49030;BME280;43337;52.070;4.508;2022-12-07T08:35:42;101968.78;;;2.15;100.00
49030;BME280;43337;52.070;4.508;2022-12-07T08:38:07;101987.13;;;2.27;100.00
49030;BME280;43337;52.070;4.508;2022-12-07T08:40:33;101970.59;;;2.20;100.00
49030;BME280;43337;52.070;4.508;2022-12-07T08:42:58;101951.44;;;2.12;100.00
49030;BME280;43337;52.070;4.508;2022-12-07T08:45:23;101986.31;;;2.36;100.00
49030;BME280;43337;52.070;4.508;2022-12-07T08:47:57;101995.09;;;2.47;100.00
49030;BME280;43337;52.070;4.508;2022-12-07T08:50:23;101974.28;;;2.45;100.00
49030;BME280;43337;52.070;4.508;2022-12-07T08:52:54;101977.81;;;2.51;100.00
49030;BME280;43337;52.070;4.508;2022-12-07T08:55:20;101962.22;;;2.51;100.00
49030;BME280;43337;52.070;4.508;2022-12-07T08:57:46;101995.31;;;2.70;100.00
49030;BME280;43337;52.070;4.508;2022-12-07T09:00:13;101972.75;;;2.66;100.00
49030;BME280;43337;52.070;4.508;2022-12-07T09:02:39;102005.88;;;2.88;100.00
49030;BME280;43337;52.070;4.508;2022-12-07T09:05:04;101987.69;;;2.93;100.00
49030;BME280;43337;52.070;4.508;2022-12-07T09:07:32;101994.72;;;3.06;100.00
49030;BME280;43337;52.070;4.508;2022-12-07T09:09:59;101999.09;;;3.13;100.00
49030;BME280;43337;52.070;4.508;2022-12-07T09:12:24;101986.09;;;3.13;100.00
49030;BME280;43337;52.070;4.508;2022-12-07T09:14:49;101967.84;;;3.09;100.00
49030;BME280;43337;52.070;4.508;2022-12-07T09:17:15;101993.94;;;3.23;100.00
49030;BME280;43337;52.070;4.508;2022-12-07T09:19:40;101990.47;;;3.22;100.00
49030;BME280;43337;52.070;4.508;2022-12-07T09:22:08;101995.69;;;3.22;100.00
49030;BME280;43337;52.070;4.508;2022-12-07T09:24:34;101991.34;;;3.20;100.00
49030;BME280;43337;52.070;4.508;2022-12-07T09:26:59;101986.09;;;3.15;100.00
49030;BME280;43337;52.070;4.508;2022-12-07T09:29:24;101973.03;;;3.07;100.00
49030;BME280;43337;52.070;4.508;2022-12-07T09:31:51;101997.38;;;3.12;100.00
49030;BME280;43337;52.070;4.508;2022-12-07T09:34:16;101991.25;;;3.07;100.00
49030;BME280;43337;52.070;4.508;2022-12-07T09:36:42;101977.31;;;2.98;100.00
49030;BME280;43337;52.070;4.508;2022-12-07T09:39:08;101986.94;;;3.08;100.00
49030;BME280;43337;52.070;4.508;2022-12-07T09:41:37;101983.44;;;3.06;100.00
49030;BME280;43337;52.070;4.508;2022-12-07T09:44:12;101976.50;;;3.06;100.00
49030;BME280;43337;52.070;4.508;2022-12-07T09:46:41;101972.22;;;3.11;100.00
49030;BME280;43337;52.070;4.508;2022-12-07T09:49:17;101995.75;;;3.33;100.00
49030;BME280;43337;52.070;4.508;2022-12-07T09:51:43;101988.88;;;3.46;100.00
49030;BME280;43337;52.070;4.508;2022-12-07T09:54:12;101979.41;;;3.60;100.00
49030;BME280;43337;52.070;4.508;2022-12-07T09:56:38;101969.88;;;3.62;100.00
49030;BME280;43337;52.070;4.508;2022-12-07T09:59:04;101964.75;;;3.77;100.00
49030;BME280;43337;52.070;4.508;2022-12-07T10:01:32;101981.28;;;3.88;100.00
49030;BME280;43337;52.070;4.508;2022-12-07T10:04:09;101967.38;;;3.91;100.00
49030;BME280;43337;52.070;4.508;2022-12-07T10:06:38;101952.59;;;3.84;100.00
49030;BME280;43337;52.070;4.508;2022-12-07T10:09:09;101978.69;;;3.99;100.00
49030;BME280;43337;52.070;4.508;2022-12-07T10:11:34;101971.75;;;4.01;100.00
49030;BME280;43337;52.070;4.508;2022-12-07T10:14:11;101960.44;;;3.99;100.00
49030;BME280;43337;52.070;4.508;2022-12-07T10:16:38;101973.50;;;4.10;100.00
49030;BME280;43337;52.070;4.508;2022-12-07T10:19:19;101954.41;;;4.11;100.00
49030;BME280;43337;52.070;4.508;2022-12-07T10:24:29;101943.16;;;4.27;100.00
49030;BME280;43337;52.070;4.508;2022-12-07T10:26:54;101964.88;;;4.49;100.00
49030;BME280;43337;52.070;4.508;2022-12-07T10:29:23;101957.94;;;4.59;100.00
49030;BME280;43337;52.070;4.508;2022-12-07T10:34:40;101948.34;;;4.87;100.00
49030;BME280;43337;52.070;4.508;2022-12-07T10:39:57;101946.59;;;5.03;100.00
49030;BME280;43337;52.070;4.508;2022-12-07T10:42:31;101939.63;;;5.09;100.00
49030;BME280;43337;52.070;4.508;2022-12-07T10:45:09;101922.25;;;5.08;100.00
49030;BME280;43337;52.070;4.508;2022-12-07T10:47:51;101925.69;;;5.17;100.00
49030;BME280;43337;52.070;4.508;2022-12-07T10:55:47;101929.19;;;5.12;100.00
49030;BME280;43337;52.070;4.508;2022-12-07T11:01:21;101919.59;;;5.16;100.00
49030;BME280;43337;52.070;4.508;2022-12-07T11:07:00;101892.63;;;5.20;100.00
49030;BME280;43337;52.070;4.508;2022-12-07T11:09:55;101909.94;;;5.38;100.00
49030;BME280;43337;52.070;4.508;2022-12-07T11:18:21;101897.69;;;5.58;100.00
49030;BME280;43337;52.070;4.508;2022-12-07T11:21:06;101889.81;;;5.63;100.00
49030;BME280;43337;52.070;4.508;2022-12-07T11:29:37;101889.75;;;5.72;100.00
49030;BME280;43337;52.070;4.508;2022-12-07T11:32:42;101888.03;;;5.74;100.00
49030;BME280;43337;52.070;4.508;2022-12-07T11:37:41;101873.25;;;5.64;100.00
49030;BME280;43337;52.070;4.508;2022-12-07T11:42:42;101876.78;;;5.61;100.00
49030;BME280;43337;52.070;4.508;2022-12-07T11:45:22;101874.19;;;5.49;100.00
49030;BME280;43337;52.070;4.508;2022-12-07T11:50:34;101881.22;;;5.41;100.00
49030;BME280;43337;52.070;4.508;2022-12-07T11:53:10;101869.09;;;5.25;100.00
49030;BME280;43337;52.070;4.508;2022-12-07T11:55:56;101890.81;;;5.30;100.00
49030;BME280;43337;52.070;4.508;2022-12-07T11:58:47;101903.91;;;5.25;100.00
49030;BME280;43337;52.070;4.508;2022-12-07T12:06:34;101891.78;;;5.06;100.00
49030;BME280;43337;52.070;4.508;2022-12-07T12:22:46;101857.06;;;4.88;100.00
49030;BME280;43337;52.070;4.508;2022-12-07T12:25:41;101857.91;;;4.97;100.00
49030;BME280;43337;52.070;4.508;2022-12-07T12:28:30;101834.44;;;4.89;100.00
49030;BME280;43337;52.070;4.508;2022-12-07T12:33:38;101850.91;;;5.08;100.00
49030;BME280;43337;52.070;4.508;2022-12-07T12:36:24;101849.16;;;5.08;100.00
49030;BME280;43337;52.070;4.508;2022-12-07T12:39:12;101854.38;;;5.11;100.00
49030;BME280;43337;52.070;4.508;2022-12-07T12:50:15;101824.59;;;5.48;100.00
49030;BME280;43337;52.070;4.508;2022-12-07T12:57:35;101820.13;;;5.68;100.00
49030;BME280;43337;52.070;4.508;2022-12-07T13:00:15;101820.13;;;5.70;100.00
49030;BME280;43337;52.070;4.508;2022-12-07T13:02:48;101820.13;;;5.68;100.00
49030;BME280;43337;52.070;4.508;2022-12-07T13:15:41;101795.00;;;5.46;98.95
49030;BME280;43337;52.070;4.508;2022-12-07T13:28:46;101782.84;;;5.42;99.09
49030;BME280;43337;52.070;4.508;2022-12-07T13:31:48;101788.94;;;5.44;99.28
49030;BME280;43337;52.070;4.508;2022-12-07T13:34:37;101782.84;;;5.46;99.69
49030;BME280;43337;52.070;4.508;2022-12-07T13:37:18;101770.59;;;5.53;99.54
49030;BME280;43337;52.070;4.508;2022-12-07T13:39:51;101776.59;;;5.64;99.73
49030;BME280;43337;52.070;4.508;2022-12-07T13:42:25;101773.97;;;5.70;99.93
49030;BME280;43337;52.070;4.508;2022-12-07T13:44:55;101775.56;;;5.86;99.47
49030;BME280;43337;52.070;4.508;2022-12-07T13:47:35;101772.09;;;5.92;98.90
49030;BME280;43337;52.070;4.508;2022-12-07T13:50:29;101782.47;;;5.98;98.83
49030;BME280;43337;52.070;4.508;2022-12-07T13:52:56;101777.25;;;6.00;98.94
49030;BME280;43337;52.070;4.508;2022-12-07T13:55:22;101759.84;;;5.94;98.35
49030;BME280;43337;52.070;4.508;2022-12-07T13:57:50;101772.91;;;5.96;98.13
49030;BME280;43337;52.070;4.508;2022-12-07T14:00:18;101782.53;;;5.92;98.01
49030;BME280;43337;52.070;4.508;2022-12-07T14:03:00;101772.97;;;5.88;97.88
49030;BME280;43337;52.070;4.508;2022-12-07T14:05:28;101771.22;;;5.84;97.85
49030;BME280;43337;52.070;4.508;2022-12-07T14:07:55;101766.03;;;5.79;97.29
49030;BME280;43337;52.070;4.508;2022-12-07T14:10:34;101761.75;;;5.74;97.73
49030;BME280;43337;52.070;4.508;2022-12-07T14:13:01;101753.94;;;5.69;97.91
49030;BME280;43337;52.070;4.508;2022-12-07T14:15:33;101755.69;;;5.64;97.85
49030;BME280;43337;52.070;4.508;2022-12-07T14:18:01;101753.09;;;5.61;98.11
49030;BME280;43337;52.070;4.508;2022-12-07T14:20:36;101759.25;;;5.58;97.93
49030;BME280;43337;52.070;4.508;2022-12-07T14:23:03;101721.94;;;5.39;97.43
49030;BME280;43337;52.070;4.508;2022-12-07T14:25:45;101751.44;;;5.52;97.87
49030;BME280;43337;52.070;4.508;2022-12-07T14:30:50;101741.06;;;5.42;97.24
49030;BME280;43337;52.070;4.508;2022-12-07T14:33:23;101734.09;;;5.44;96.92
49030;BME280;43337;52.070;4.508;2022-12-07T14:35:52;101734.09;;;5.44;97.03
49030;BME280;43337;52.070;4.508;2022-12-07T14:38:24;101734.09;;;5.41;97.18
49030;BME280;43337;52.070;4.508;2022-12-07T14:41:02;101727.16;;;5.39;97.17
49030;BME280;43337;52.070;4.508;2022-12-07T14:43:47;101721.06;;;5.37;97.18
49030;BME280;43337;52.070;4.508;2022-12-07T14:46:18;101715.88;;;5.33;97.08
49030;BME280;43337;52.070;4.508;2022-12-07T14:48:46;101721.09;;;5.33;96.95
49030;BME280;43337;52.070;4.508;2022-12-07T14:51:12;101701.13;;;5.26;97.21
49030;BME280;43337;52.070;4.508;2022-12-07T14:53:41;101715.88;;;5.33;96.95
49030;BME280;43337;52.070;4.508;2022-12-07T14:56:08;101699.38;;;5.26;96.93
49030;BME280;43337;52.070;4.508;2022-12-07T14:58:33;101709.88;;;5.23;96.97
49030;BME280;43337;52.070;4.508;2022-12-07T15:00:59;101710.69;;;5.28;96.99
49030;BME280;43337;52.070;4.508;2022-12-07T15:03:25;101715.91;;;5.28;96.90
49030;BME280;43337;52.070;4.508;2022-12-07T15:05:53;101718.56;;;5.22;96.79
49030;BME280;43337;52.070;4.508;2022-12-07T15:08:19;101721.19;;;5.24;96.88